sensor_id;sensor_type;location;lat;lon;timestamp;temperature;humidity
39401;SHT31;75540;50.000;7.360;2024-03-06T00:00:31;3.04;93.54
39401;SHT31;75540;50.000;7.360;2024-03-06T00:03:00;3.06;93.47
39401;SHT31;75540;50.000;7.360;2024-03-06T00:05:28;3.02;93.75
39401;SHT31;75540;50.000;7.360;2024-03-06T00:07:56;3.05;93.90
39401;SHT31;75540;50.000;7.360;2024-03-06T00:10:25;3.18;93.51
39401;SHT31;75540;50.000;7.360;2024-03-06T00:12:54;3.13;93.70
39401;SHT31;75540;50.000;7.360;2024-03-06T00:15:23;3.15;93.80
39401;SHT31;75540;50.000;7.360;2024-03-06T00:17:51;3.19;93.62
39401;SHT31;75540;50.000;7.360;2024-03-06T00:20:19;3.16;93.60
39401;SHT31;75540;50.000;7.360;2024-03-06T00:22:48;3.22;93.36
39401;SHT31;75540;50.000;7.360;2024-03-06T00:25:17;3.19;93.34
39401;SHT31;75540;50.000;7.360;2024-03-06T00:27:45;3.18;93.27
39401;SHT31;75540;50.000;7.360;2024-03-06T00:30:16;3.29;93.19
39401;SHT31;75540;50.000;7.360;2024-03-06T00:32:44;3.38;92.97
39401;SHT31;75540;50.000;7.360;2024-03-06T00:35:13;3.16;93.51
39401;SHT31;75540;50.000;7.360;2024-03-06T00:37:41;3.16;93.39
39401;SHT31;75540;50.000;7.360;2024-03-06T00:40:11;3.06;93.82
39401;SHT31;75540;50.000;7.360;2024-03-06T00:42:39;2.98;93.88
39401;SHT31;75540;50.000;7.360;2024-03-06T00:45:08;2.99;93.71
39401;SHT31;75540;50.000;7.360;2024-03-06T00:47:38;3.04;93.78
39401;SHT31;75540;50.000;7.360;2024-03-06T00:50:07;3.06;93.65
39401;SHT31;75540;50.000;7.360;2024-03-06T00:52:35;3.08;93.50
39401;SHT31;75540;50.000;7.360;2024-03-06T00:55:04;3.02;93.56
39401;SHT31;75540;50.000;7.360;2024-03-06T00:57:33;3.13;93.55
39401;SHT31;75540;50.000;7.360;2024-03-06T01:00:01;3.05;93.50
39401;SHT31;75540;50.000;7.360;2024-03-06T01:02:33;3.12;93.40
39401;SHT31;75540;50.000;7.360;2024-03-06T01:05:04;3.19;93.16
39401;SHT31;75540;50.000;7.360;2024-03-06T01:07:34;3.16;93.21
39401;SHT31;75540;50.000;7.360;2024-03-06T01:10:03;3.12;93.24
39401;SHT31;75540;50.000;7.360;2024-03-06T01:12:33;3.01;93.58
39401;SHT31;75540;50.000;7.360;2024-03-06T01:15:02;2.99;93.82
39401;SHT31;75540;50.000;7.360;2024-03-06T01:17:30;3.02;93.37
39401;SHT31;75540;50.000;7.360;2024-03-06T01:19:59;2.99;93.55
39401;SHT31;75540;50.000;7.360;2024-03-06T01:22:29;3.02;93.82
39401;SHT31;75540;50.000;7.360;2024-03-06T01:24:58;2.92;94.20
39401;SHT31;75540;50.000;7.360;2024-03-06T01:27:27;2.98;94.01
39401;SHT31;75540;50.000;7.360;2024-03-06T01:29:55;3.05;93.80
39401;SHT31;75540;50.000;7.360;2024-03-06T01:32:24;3.01;94.04
39401;SHT31;75540;50.000;7.360;2024-03-06T01:34:52;3.01;93.75
39401;SHT31;75540;50.000;7.360;2024-03-06T01:37:21;2.95;93.74
39401;SHT31;75540;50.000;7.360;2024-03-06T01:39:51;2.96;93.89
39401;SHT31;75540;50.000;7.360;2024-03-06T01:42:19;2.98;93.58
39401;SHT31;75540;50.000;7.360;2024-03-06T01:44:47;2.84;93.86
39401;SHT31;75540;50.000;7.360;2024-03-06T01:47:15;2.89;93.78
39401;SHT31;75540;50.000;7.360;2024-03-06T01:49:44;2.89;93.75
39401;SHT31;75540;50.000;7.360;2024-03-06T01:52:14;2.85;93.40
39401;SHT31;75540;50.000;7.360;2024-03-06T01:54:44;2.88;93.60
39401;SHT31;75540;50.000;7.360;2024-03-06T01:57:16;2.87;93.75
39401;SHT31;75540;50.000;7.360;2024-03-06T01:59:48;2.74;93.99
39401;SHT31;75540;50.000;7.360;2024-03-06T02:02:17;2.77;93.83
39401;SHT31;75540;50.000;7.360;2024-03-06T02:04:45;2.78;94.10
39401;SHT31;75540;50.000;7.360;2024-03-06T02:07:14;2.53;94.93
39401;SHT31;75540;50.000;7.360;2024-03-06T02:09:43;2.38;95.46
39401;SHT31;75540;50.000;7.360;2024-03-06T02:12:12;2.38;95.37
39401;SHT31;75540;50.000;7.360;2024-03-06T02:14:43;2.44;94.98
39401;SHT31;75540;50.000;7.360;2024-03-06T02:17:11;2.53;94.78
39401;SHT31;75540;50.000;7.360;2024-03-06T02:19:40;2.55;94.70
39401;SHT31;75540;50.000;7.360;2024-03-06T02:22:10;2.68;94.67
39401;SHT31;75540;50.000;7.360;2024-03-06T02:24:46;2.71;94.47
39401;SHT31;75540;50.000;7.360;2024-03-06T02:27:14;2.74;94.53
39401;SHT31;75540;50.000;7.360;2024-03-06T02:29:43;2.77;94.32
39401;SHT31;75540;50.000;7.360;2024-03-06T02:32:12;2.81;94.22
39401;SHT31;75540;50.000;7.360;2024-03-06T02:34:41;2.85;94.12
39401;SHT31;75540;50.000;7.360;2024-03-06T02:37:11;2.81;93.86
39401;SHT31;75540;50.000;7.360;2024-03-06T02:39:39;2.88;93.62
39401;SHT31;75540;50.000;7.360;2024-03-06T02:42:07;2.83;93.44
39401;SHT31;75540;50.000;7.360;2024-03-06T02:44:36;2.78;93.33
39401;SHT31;75540;50.000;7.360;2024-03-06T02:47:04;2.65;93.43
39401;SHT31;75540;50.000;7.360;2024-03-06T02:49:33;2.65;93.54
39401;SHT31;75540;50.000;7.360;2024-03-06T02:52:01;2.58;93.51
39401;SHT31;75540;50.000;7.360;2024-03-06T02:54:31;2.48;93.71
39401;SHT31;75540;50.000;7.360;2024-03-06T02:57:00;2.44;94.11
39401;SHT31;75540;50.000;7.360;2024-03-06T02:59:28;2.44;94.23
39401;SHT31;75540;50.000;7.360;2024-03-06T03:01:56;2.64;94.03
39401;SHT31;75540;50.000;7.360;2024-03-06T03:04:25;2.57;94.39
39401;SHT31;75540;50.000;7.360;2024-03-06T03:06:53;2.54;94.54
39401;SHT31;75540;50.000;7.360;2024-03-06T03:09:21;2.67;94.40
39401;SHT31;75540;50.000;7.360;2024-03-06T03:11:51;2.74;94.07
39401;SHT31;75540;50.000;7.360;2024-03-06T03:14:19;2.64;94.16
39401;SHT31;75540;50.000;7.360;2024-03-06T03:16:48;2.65;94.11
39401;SHT31;75540;50.000;7.360;2024-03-06T03:19:16;2.61;94.02
39401;SHT31;75540;50.000;7.360;2024-03-06T03:21:45;2.62;93.94
39401;SHT31;75540;50.000;7.360;2024-03-06T03:24:14;2.47;94.17
39401;SHT31;75540;50.000;7.360;2024-03-06T03:26:43;2.43;94.22
39401;SHT31;75540;50.000;7.360;2024-03-06T03:29:13;2.48;94.07
39401;SHT31;75540;50.000;7.360;2024-03-06T03:31:41;2.50;94.05
39401;SHT31;75540;50.000;7.360;2024-03-06T03:34:10;2.50;94.00
39401;SHT31;75540;50.000;7.360;2024-03-06T03:36:40;2.54;94.19
39401;SHT31;75540;50.000;7.360;2024-03-06T03:39:10;2.47;94.27
39401;SHT31;75540;50.000;7.360;2024-03-06T03:41:44;2.55;94.15
39401;SHT31;75540;50.000;7.360;2024-03-06T03:44:15;2.51;94.32
39401;SHT31;75540;50.000;7.360;2024-03-06T03:46:44;2.57;94.04
39401;SHT31;75540;50.000;7.360;2024-03-06T03:49:13;2.61;93.92
39401;SHT31;75540;50.000;7.360;2024-03-06T03:51:42;2.60;93.85
39401;SHT31;75540;50.000;7.360;2024-03-06T03:54:10;2.61;93.77
39401;SHT31;75540;50.000;7.360;2024-03-06T03:56:38;2.51;93.83
39401;SHT31;75540;50.000;7.360;2024-03-06T03:59:06;2.60;93.87
39401;SHT31;75540;50.000;7.360;2024-03-06T04:01:36;2.48;94.19
39401;SHT31;75540;50.000;7.360;2024-03-06T04:04:05;2.40;94.58
39401;SHT31;75540;50.000;7.360;2024-03-06T04:06:35;2.43;94.49
39401;SHT31;75540;50.000;7.360;2024-03-06T04:09:03;2.34;94.70
39401;SHT31;75540;50.000;7.360;2024-03-06T04:11:32;2.23;95.57
39401;SHT31;75540;50.000;7.360;2024-03-06T04:14:03;2.34;94.85
39401;SHT31;75540;50.000;7.360;2024-03-06T04:16:33;2.40;94.67
39401;SHT31;75540;50.000;7.360;2024-03-06T04:19:03;2.36;94.63
39401;SHT31;75540;50.000;7.360;2024-03-06T04:21:31;2.30;94.66
39401;SHT31;75540;50.000;7.360;2024-03-06T04:24:00;2.38;94.58
39401;SHT31;75540;50.000;7.360;2024-03-06T04:26:28;2.50;94.24
39401;SHT31;75540;50.000;7.360;2024-03-06T04:28:56;2.53;94.10
39401;SHT31;75540;50.000;7.360;2024-03-06T04:31:24;2.48;94.12
39401;SHT31;75540;50.000;7.360;2024-03-06T04:33:53;2.33;94.34
39401;SHT31;75540;50.000;7.360;2024-03-06T04:36:22;2.48;94.31
39401;SHT31;75540;50.000;7.360;2024-03-06T04:38:51;2.47;94.16
39401;SHT31;75540;50.000;7.360;2024-03-06T04:41:19;2.44;94.16
39401;SHT31;75540;50.000;7.360;2024-03-06T04:43:48;2.48;94.10
39401;SHT31;75540;50.000;7.360;2024-03-06T04:46:18;2.51;94.18
39401;SHT31;75540;50.000;7.360;2024-03-06T04:48:46;2.55;94.06
39401;SHT31;75540;50.000;7.360;2024-03-06T04:51:15;2.41;94.14
39401;SHT31;75540;50.000;7.360;2024-03-06T04:53:48;2.37;94.74
39401;SHT31;75540;50.000;7.360;2024-03-06T04:56:16;2.45;94.33
39401;SHT31;75540;50.000;7.360;2024-03-06T04:58:46;2.40;94.32
39401;SHT31;75540;50.000;7.360;2024-03-06T05:01:15;2.30;94.51
39401;SHT31;75540;50.000;7.360;2024-03-06T05:03:43;2.26;95.05
39401;SHT31;75540;50.000;7.360;2024-03-06T05:06:28;2.41;94.73
39401;SHT31;75540;50.000;7.360;2024-03-06T05:09:15;2.43;94.55
39401;SHT31;75540;50.000;7.360;2024-03-06T05:12:01;2.45;94.55
39401;SHT31;75540;50.000;7.360;2024-03-06T05:14:47;2.43;94.70
39401;SHT31;75540;50.000;7.360;2024-03-06T05:17:33;2.34;95.04
39401;SHT31;75540;50.000;7.360;2024-03-06T05:20:18;2.36;94.99
39401;SHT31;75540;50.000;7.360;2024-03-06T05:23:04;2.48;94.73
39401;SHT31;75540;50.000;7.360;2024-03-06T05:25:51;2.53;94.67
39401;SHT31;75540;50.000;7.360;2024-03-06T05:28:37;2.48;94.20
39401;SHT31;75540;50.000;7.360;2024-03-06T05:31:23;2.41;94.71
39401;SHT31;75540;50.000;7.360;2024-03-06T05:34:09;2.40;94.61
39401;SHT31;75540;50.000;7.360;2024-03-06T05:36:55;2.44;94.60
39401;SHT31;75540;50.000;7.360;2024-03-06T05:39:41;2.38;94.26
39401;SHT31;75540;50.000;7.360;2024-03-06T05:42:29;2.34;94.42
39401;SHT31;75540;50.000;7.360;2024-03-06T05:45:14;2.23;94.96
39401;SHT31;75540;50.000;7.360;2024-03-06T05:48:00;2.36;94.79
39401;SHT31;75540;50.000;7.360;2024-03-06T05:50:48;2.33;94.87
39401;SHT31;75540;50.000;7.360;2024-03-06T05:53:36;2.24;94.94
39401;SHT31;75540;50.000;7.360;2024-03-06T05:56:22;2.06;95.39
39401;SHT31;75540;50.000;7.360;2024-03-06T05:59:09;1.92;95.90
39401;SHT31;75540;50.000;7.360;2024-03-06T06:01:37;2.00;95.80
39401;SHT31;75540;50.000;7.360;2024-03-06T06:04:05;2.07;95.62
39401;SHT31;75540;50.000;7.360;2024-03-06T06:06:34;2.02;95.70
39401;SHT31;75540;50.000;7.360;2024-03-06T06:09:02;2.17;95.44
39401;SHT31;75540;50.000;7.360;2024-03-06T06:11:32;2.30;95.22
39401;SHT31;75540;50.000;7.360;2024-03-06T06:14:01;2.16;95.25
39401;SHT31;75540;50.000;7.360;2024-03-06T06:16:36;2.19;95.21
39401;SHT31;75540;50.000;7.360;2024-03-06T06:19:05;2.34;95.07
39401;SHT31;75540;50.000;7.360;2024-03-06T06:21:34;2.37;94.70
39401;SHT31;75540;50.000;7.360;2024-03-06T06:24:03;2.32;94.66
39401;SHT31;75540;50.000;7.360;2024-03-06T06:26:32;2.29;95.11
39401;SHT31;75540;50.000;7.360;2024-03-06T06:29:00;2.38;95.00
39401;SHT31;75540;50.000;7.360;2024-03-06T06:31:29;2.51;94.91
39401;SHT31;75540;50.000;7.360;2024-03-06T06:33:59;2.67;94.79
39401;SHT31;75540;50.000;7.360;2024-03-06T06:36:27;2.67;94.50
39401;SHT31;75540;50.000;7.360;2024-03-06T06:38:56;2.78;94.41
39401;SHT31;75540;50.000;7.360;2024-03-06T06:41:27;2.80;94.27
39401;SHT31;75540;50.000;7.360;2024-03-06T06:43:56;2.81;94.54
39401;SHT31;75540;50.000;7.360;2024-03-06T06:46:24;2.81;94.45
39401;SHT31;75540;50.000;7.360;2024-03-06T06:48:52;3.04;94.32
39401;SHT31;75540;50.000;7.360;2024-03-06T06:51:22;3.04;93.80
39401;SHT31;75540;50.000;7.360;2024-03-06T06:53:51;3.15;93.86
39401;SHT31;75540;50.000;7.360;2024-03-06T06:56:22;3.18;93.56
39401;SHT31;75540;50.000;7.360;2024-03-06T06:58:52;3.18;93.39
39401;SHT31;75540;50.000;7.360;2024-03-06T07:01:20;3.29;93.28
39401;SHT31;75540;50.000;7.360;2024-03-06T07:03:48;3.43;93.36
39401;SHT31;75540;50.000;7.360;2024-03-06T07:06:17;3.59;93.17
39401;SHT31;75540;50.000;7.360;2024-03-06T07:08:46;3.66;93.09
39401;SHT31;75540;50.000;7.360;2024-03-06T07:11:16;3.79;92.73
39401;SHT31;75540;50.000;7.360;2024-03-06T07:13:45;3.86;92.54
39401;SHT31;75540;50.000;7.360;2024-03-06T07:16:13;3.94;92.21
39401;SHT31;75540;50.000;7.360;2024-03-06T07:18:41;4.01;92.06
39401;SHT31;75540;50.000;7.360;2024-03-06T07:21:10;4.10;92.00
39401;SHT31;75540;50.000;7.360;2024-03-06T07:23:38;4.03;92.48
39401;SHT31;75540;50.000;7.360;2024-03-06T07:26:08;4.34;91.70
39401;SHT31;75540;50.000;7.360;2024-03-06T07:28:37;4.61;90.83
39401;SHT31;75540;50.000;7.360;2024-03-06T07:31:05;4.92;89.80
39401;SHT31;75540;50.000;7.360;2024-03-06T07:33:34;5.71;88.97
39401;SHT31;75540;50.000;7.360;2024-03-06T07:36:05;6.32;86.36
39401;SHT31;75540;50.000;7.360;2024-03-06T07:38:34;7.19;84.35
39401;SHT31;75540;50.000;7.360;2024-03-06T07:41:02;7.66;82.62
39401;SHT31;75540;50.000;7.360;2024-03-06T07:43:32;8.29;81.23
39401;SHT31;75540;50.000;7.360;2024-03-06T07:46:00;8.92;78.10
39401;SHT31;75540;50.000;7.360;2024-03-06T07:48:29;9.29;76.00
39401;SHT31;75540;50.000;7.360;2024-03-06T07:50:57;9.40;75.00
39401;SHT31;75540;50.000;7.360;2024-03-06T07:53:25;8.85;75.59
39401;SHT31;75540;50.000;7.360;2024-03-06T07:55:54;8.63;77.42
39401;SHT31;75540;50.000;7.360;2024-03-06T07:58:22;8.85;76.22
39401;SHT31;75540;50.000;7.360;2024-03-06T08:00:52;9.30;74.06
39401;SHT31;75540;50.000;7.360;2024-03-06T08:03:22;9.44;74.71
39401;SHT31;75540;50.000;7.360;2024-03-06T08:05:52;9.28;73.59
39401;SHT31;75540;50.000;7.360;2024-03-06T08:08:21;8.98;75.03
39401;SHT31;75540;50.000;7.360;2024-03-06T08:10:49;9.11;75.55
39401;SHT31;75540;50.000;7.360;2024-03-06T08:13:18;9.25;75.32
39401;SHT31;75540;50.000;7.360;2024-03-06T08:15:46;9.71;74.23
39401;SHT31;75540;50.000;7.360;2024-03-06T08:18:16;9.35;74.50
39401;SHT31;75540;50.000;7.360;2024-03-06T08:20:45;9.52;73.18
39401;SHT31;75540;50.000;7.360;2024-03-06T08:23:13;9.35;74.59
39401;SHT31;75540;50.000;7.360;2024-03-06T08:25:41;9.73;73.51
39401;SHT31;75540;50.000;7.360;2024-03-06T08:28:10;9.30;74.30
39401;SHT31;75540;50.000;7.360;2024-03-06T08:30:38;9.61;74.65
39401;SHT31;75540;50.000;7.360;2024-03-06T08:33:06;9.69;74.53
39401;SHT31;75540;50.000;7.360;2024-03-06T08:35:36;10.42;72.23
39401;SHT31;75540;50.000;7.360;2024-03-06T08:38:05;10.64;70.98
39401;SHT31;75540;50.000;7.360;2024-03-06T08:40:34;10.58;70.19
39401;SHT31;75540;50.000;7.360;2024-03-06T08:43:04;10.64;69.72
39401;SHT31;75540;50.000;7.360;2024-03-06T08:45:32;11.03;69.97
39401;SHT31;75540;50.000;7.360;2024-03-06T08:48:01;10.95;70.02
39401;SHT31;75540;50.000;7.360;2024-03-06T08:50:30;11.06;66.39
39401;SHT31;75540;50.000;7.360;2024-03-06T08:53:00;10.97;67.65
39401;SHT31;75540;50.000;7.360;2024-03-06T08:55:29;11.26;68.19
39401;SHT31;75540;50.000;7.360;2024-03-06T08:57:57;11.30;67.74
39401;SHT31;75540;50.000;7.360;2024-03-06T09:00:28;11.16;68.00
39401;SHT31;75540;50.000;7.360;2024-03-06T09:02:57;10.99;68.58
39401;SHT31;75540;50.000;7.360;2024-03-06T09:05:26;11.02;68.68
39401;SHT31;75540;50.000;7.360;2024-03-06T09:07:55;11.00;68.16
39401;SHT31;75540;50.000;7.360;2024-03-06T09:10:29;11.13;68.85
39401;SHT31;75540;50.000;7.360;2024-03-06T09:12:58;11.10;69.34
39401;SHT31;75540;50.000;7.360;2024-03-06T09:15:26;11.36;67.35
39401;SHT31;75540;50.000;7.360;2024-03-06T09:17:55;11.37;67.73
39401;SHT31;75540;50.000;7.360;2024-03-06T09:20:24;11.34;66.85
39401;SHT31;75540;50.000;7.360;2024-03-06T09:22:53;11.67;66.82
39401;SHT31;75540;50.000;7.360;2024-03-06T09:25:24;11.81;64.08
39401;SHT31;75540;50.000;7.360;2024-03-06T09:27:57;11.73;63.35
39401;SHT31;75540;50.000;7.360;2024-03-06T09:30:26;11.90;64.37
39401;SHT31;75540;50.000;7.360;2024-03-06T09:32:55;12.12;62.96
39401;SHT31;75540;50.000;7.360;2024-03-06T09:35:24;11.95;64.00
39401;SHT31;75540;50.000;7.360;2024-03-06T09:37:52;12.29;62.14
39401;SHT31;75540;50.000;7.360;2024-03-06T09:40:22;11.64;60.23
39401;SHT31;75540;50.000;7.360;2024-03-06T09:42:51;12.38;61.49
39401;SHT31;75540;50.000;7.360;2024-03-06T09:45:21;12.14;60.71
39401;SHT31;75540;50.000;7.360;2024-03-06T09:47:50;11.92;63.02
39401;SHT31;75540;50.000;7.360;2024-03-06T09:50:23;12.59;61.38
39401;SHT31;75540;50.000;7.360;2024-03-06T09:52:55;12.12;60.75
39401;SHT31;75540;50.000;7.360;2024-03-06T09:55:24;12.31;61.03
39401;SHT31;75540;50.000;7.360;2024-03-06T09:57:54;13.00;60.59
39401;SHT31;75540;50.000;7.360;2024-03-06T10:00:24;13.08;59.91
39401;SHT31;75540;50.000;7.360;2024-03-06T10:02:57;13.28;57.34
39401;SHT31;75540;50.000;7.360;2024-03-06T10:05:27;12.96;57.34
39401;SHT31;75540;50.000;7.360;2024-03-06T10:07:58;12.89;56.66
39401;SHT31;75540;50.000;7.360;2024-03-06T10:10:27;13.44;55.97
39401;SHT31;75540;50.000;7.360;2024-03-06T10:12:56;13.07;56.64
39401;SHT31;75540;50.000;7.360;2024-03-06T10:15:31;12.12;57.69
39401;SHT31;75540;50.000;7.360;2024-03-06T10:18:13;12.87;55.97
39401;SHT31;75540;50.000;7.360;2024-03-06T10:20:42;13.14;56.16
39401;SHT31;75540;50.000;7.360;2024-03-06T10:23:12;12.75;54.46
39401;SHT31;75540;50.000;7.360;2024-03-06T10:25:42;13.17;54.25
39401;SHT31;75540;50.000;7.360;2024-03-06T10:28:12;13.31;54.92
39401;SHT31;75540;50.000;7.360;2024-03-06T10:30:42;13.62;54.61
39401;SHT31;75540;50.000;7.360;2024-03-06T10:33:11;13.74;54.49
39401;SHT31;75540;50.000;7.360;2024-03-06T10:35:40;13.43;54.90
39401;SHT31;75540;50.000;7.360;2024-03-06T10:38:10;13.16;55.48
39401;SHT31;75540;50.000;7.360;2024-03-06T10:40:40;12.82;54.87
39401;SHT31;75540;50.000;7.360;2024-03-06T10:43:09;11.91;55.39
39401;SHT31;75540;50.000;7.360;2024-03-06T10:45:50;11.66;56.87
39401;SHT31;75540;50.000;7.360;2024-03-06T10:48:19;11.77;55.18
39401;SHT31;75540;50.000;7.360;2024-03-06T10:50:49;11.80;51.05
39401;SHT31;75540;50.000;7.360;2024-03-06T10:53:18;12.46;47.62
39401;SHT31;75540;50.000;7.360;2024-03-06T10:55:50;13.24;49.63
39401;SHT31;75540;50.000;7.360;2024-03-06T10:58:19;13.21;48.01
39401;SHT31;75540;50.000;7.360;2024-03-06T11:00:50;13.40;49.71
39401;SHT31;75540;50.000;7.360;2024-03-06T11:03:19;13.47;49.48
39401;SHT31;75540;50.000;7.360;2024-03-06T11:05:47;13.92;49.24
39401;SHT31;75540;50.000;7.360;2024-03-06T11:08:19;13.98;51.01
39401;SHT31;75540;50.000;7.360;2024-03-06T11:10:48;13.98;49.42
39401;SHT31;75540;50.000;7.360;2024-03-06T11:13:23;13.59;49.63
39401;SHT31;75540;50.000;7.360;2024-03-06T11:15:57;13.64;50.48
39401;SHT31;75540;50.000;7.360;2024-03-06T11:18:41;13.82;50.50
39401;SHT31;75540;50.000;7.360;2024-03-06T11:21:29;13.43;48.85
39401;SHT31;75540;50.000;7.360;2024-03-06T11:24:14;13.94;47.61
39401;SHT31;75540;50.000;7.360;2024-03-06T11:26:46;13.78;50.27
39401;SHT31;75540;50.000;7.360;2024-03-06T11:29:18;13.77;47.48
39401;SHT31;75540;50.000;7.360;2024-03-06T11:32:06;13.99;48.89
39401;SHT31;75540;50.000;7.360;2024-03-06T11:34:37;13.10;49.43
39401;SHT31;75540;50.000;7.360;2024-03-06T11:37:06;13.58;50.95
39401;SHT31;75540;50.000;7.360;2024-03-06T11:39:38;12.80;50.97
39401;SHT31;75540;50.000;7.360;2024-03-06T11:42:09;12.35;51.54
39401;SHT31;75540;50.000;7.360;2024-03-06T11:44:52;12.06;53.09
39401;SHT31;75540;50.000;7.360;2024-03-06T11:47:23;11.74;53.70
39401;SHT31;75540;50.000;7.360;2024-03-06T11:49:53;11.02;56.14
39401;SHT31;75540;50.000;7.360;2024-03-06T11:52:22;10.96;57.22
39401;SHT31;75540;50.000;7.360;2024-03-06T11:54:51;11.34;58.08
39401;SHT31;75540;50.000;7.360;2024-03-06T11:57:20;11.37;58.17
39401;SHT31;75540;50.000;7.360;2024-03-06T11:59:52;12.08;57.32
39401;SHT31;75540;50.000;7.360;2024-03-06T12:02:21;12.93;55.70
39401;SHT31;75540;50.000;7.360;2024-03-06T12:04:50;12.82;55.94
39401;SHT31;75540;50.000;7.360;2024-03-06T12:07:20;12.29;56.00
39401;SHT31;75540;50.000;7.360;2024-03-06T12:09:51;12.21;57.08
39401;SHT31;75540;50.000;7.360;2024-03-06T12:12:20;11.80;58.67
39401;SHT31;75540;50.000;7.360;2024-03-06T12:14:57;11.70;58.38
39401;SHT31;75540;50.000;7.360;2024-03-06T12:17:26;11.54;58.82
39401;SHT31;75540;50.000;7.360;2024-03-06T12:19:56;10.93;59.04
39401;SHT31;75540;50.000;7.360;2024-03-06T12:22:25;10.78;60.17
39401;SHT31;75540;50.000;7.360;2024-03-06T12:24:58;10.82;60.18
39401;SHT31;75540;50.000;7.360;2024-03-06T12:27:27;10.42;59.83
39401;SHT31;75540;50.000;7.360;2024-03-06T12:29:55;10.17;62.16
39401;SHT31;75540;50.000;7.360;2024-03-06T12:32:23;10.04;62.47
39401;SHT31;75540;50.000;7.360;2024-03-06T12:34:58;10.05;62.68
39401;SHT31;75540;50.000;7.360;2024-03-06T12:37:29;10.13;62.38
39401;SHT31;75540;50.000;7.360;2024-03-06T12:40:02;10.15;62.77
39401;SHT31;75540;50.000;7.360;2024-03-06T12:42:32;10.04;63.04
39401;SHT31;75540;50.000;7.360;2024-03-06T12:45:01;9.95;62.71
39401;SHT31;75540;50.000;7.360;2024-03-06T12:47:30;9.80;63.74
39401;SHT31;75540;50.000;7.360;2024-03-06T12:50:00;10.07;64.69
39401;SHT31;75540;50.000;7.360;2024-03-06T12:52:28;10.15;63.00
39401;SHT31;75540;50.000;7.360;2024-03-06T12:54:57;10.13;61.32
39401;SHT31;75540;50.000;7.360;2024-03-06T12:57:25;10.10;61.32
39401;SHT31;75540;50.000;7.360;2024-03-06T12:59:54;10.13;60.18
39401;SHT31;75540;50.000;7.360;2024-03-06T13:02:23;10.11;61.02
39401;SHT31;75540;50.000;7.360;2024-03-06T13:04:51;10.14;61.45
39401;SHT31;75540;50.000;7.360;2024-03-06T13:07:21;9.89;59.98
39401;SHT31;75540;50.000;7.360;2024-03-06T13:09:50;9.87;58.75
39401;SHT31;75540;50.000;7.360;2024-03-06T13:12:18;9.98;59.81
39401;SHT31;75540;50.000;7.360;2024-03-06T13:14:47;10.00;59.91
39401;SHT31;75540;50.000;7.360;2024-03-06T13:17:15;10.04;60.03
39401;SHT31;75540;50.000;7.360;2024-03-06T13:19:43;10.24;59.69
39401;SHT31;75540;50.000;7.360;2024-03-06T13:22:12;10.37;59.79
39401;SHT31;75540;50.000;7.360;2024-03-06T13:24:41;10.38;57.53
39401;SHT31;75540;50.000;7.360;2024-03-06T13:27:12;10.52;58.11
39401;SHT31;75540;50.000;7.360;2024-03-06T13:29:41;10.34;59.64
39401;SHT31;75540;50.000;7.360;2024-03-06T13:32:09;10.56;60.24
39401;SHT31;75540;50.000;7.360;2024-03-06T13:34:38;10.52;60.02
39401;SHT31;75540;50.000;7.360;2024-03-06T13:37:06;10.55;59.74
39401;SHT31;75540;50.000;7.360;2024-03-06T13:39:36;10.61;60.06
39401;SHT31;75540;50.000;7.360;2024-03-06T13:42:09;10.35;61.19
39401;SHT31;75540;50.000;7.360;2024-03-06T13:44:38;10.27;60.19
39401;SHT31;75540;50.000;7.360;2024-03-06T13:47:06;10.04;60.86
39401;SHT31;75540;50.000;7.360;2024-03-06T13:49:37;10.11;60.61
39401;SHT31;75540;50.000;7.360;2024-03-06T13:52:07;10.03;60.49
39401;SHT31;75540;50.000;7.360;2024-03-06T13:54:38;9.97;61.25
39401;SHT31;75540;50.000;7.360;2024-03-06T13:57:08;9.84;61.32
39401;SHT31;75540;50.000;7.360;2024-03-06T13:59:37;9.95;61.27
39401;SHT31;75540;50.000;7.360;2024-03-06T14:02:06;9.69;62.21
39401;SHT31;75540;50.000;7.360;2024-03-06T14:04:35;9.80;62.45
39401;SHT31;75540;50.000;7.360;2024-03-06T14:07:03;9.80;61.67
39401;SHT31;75540;50.000;7.360;2024-03-06T14:09:32;9.89;61.90
39401;SHT31;75540;50.000;7.360;2024-03-06T14:12:00;9.95;62.36
39401;SHT31;75540;50.000;7.360;2024-03-06T14:14:30;9.83;62.15
39401;SHT31;75540;50.000;7.360;2024-03-06T14:16:59;9.98;61.72
39401;SHT31;75540;50.000;7.360;2024-03-06T14:19:28;9.94;61.82
39401;SHT31;75540;50.000;7.360;2024-03-06T14:21:56;9.97;62.46
39401;SHT31;75540;50.000;7.360;2024-03-06T14:24:30;9.77;61.75
39401;SHT31;75540;50.000;7.360;2024-03-06T14:26:58;9.97;61.39
39401;SHT31;75540;50.000;7.360;2024-03-06T14:29:26;10.03;60.98
39401;SHT31;75540;50.000;7.360;2024-03-06T14:31:57;9.98;60.58
39401;SHT31;75540;50.000;7.360;2024-03-06T14:34:25;9.95;59.93
39401;SHT31;75540;50.000;7.360;2024-03-06T14:36:54;9.80;60.54
39401;SHT31;75540;50.000;7.360;2024-03-06T14:39:22;9.66;61.68
39401;SHT31;75540;50.000;7.360;2024-03-06T14:41:53;9.59;61.91
39401;SHT31;75540;50.000;7.360;2024-03-06T14:44:21;9.54;63.58
39401;SHT31;75540;50.000;7.360;2024-03-06T14:46:50;9.67;63.74
39401;SHT31;75540;50.000;7.360;2024-03-06T14:49:19;9.42;63.16
39401;SHT31;75540;50.000;7.360;2024-03-06T14:51:48;9.38;63.74
39401;SHT31;75540;50.000;7.360;2024-03-06T14:54:16;9.54;63.19
39401;SHT31;75540;50.000;7.360;2024-03-06T14:56:45;9.59;63.58
39401;SHT31;75540;50.000;7.360;2024-03-06T14:59:13;9.53;63.51
39401;SHT31;75540;50.000;7.360;2024-03-06T15:01:42;9.42;64.15
39401;SHT31;75540;50.000;7.360;2024-03-06T15:04:11;9.40;64.14
39401;SHT31;75540;50.000;7.360;2024-03-06T15:06:41;9.46;64.47
39401;SHT31;75540;50.000;7.360;2024-03-06T15:09:09;9.33;64.46
39401;SHT31;75540;50.000;7.360;2024-03-06T15:11:40;9.42;65.03
39401;SHT31;75540;50.000;7.360;2024-03-06T15:14:08;9.42;63.79
39401;SHT31;75540;50.000;7.360;2024-03-06T15:16:37;9.49;64.73
39401;SHT31;75540;50.000;7.360;2024-03-06T15:19:07;9.52;63.86
39401;SHT31;75540;50.000;7.360;2024-03-06T15:21:35;9.44;63.61
39401;SHT31;75540;50.000;7.360;2024-03-06T15:24:05;9.44;63.93
39401;SHT31;75540;50.000;7.360;2024-03-06T15:26:33;9.25;65.11
39401;SHT31;75540;50.000;7.360;2024-03-06T15:29:04;9.23;65.97
39401;SHT31;75540;50.000;7.360;2024-03-06T15:31:33;9.35;65.10
39401;SHT31;75540;50.000;7.360;2024-03-06T15:34:02;9.33;65.57
39401;SHT31;75540;50.000;7.360;2024-03-06T15:36:30;9.20;66.38
39401;SHT31;75540;50.000;7.360;2024-03-06T15:38:58;9.20;66.03
39401;SHT31;75540;50.000;7.360;2024-03-06T15:41:28;9.30;66.22
39401;SHT31;75540;50.000;7.360;2024-03-06T15:43:56;9.23;66.64
39401;SHT31;75540;50.000;7.360;2024-03-06T15:46:25;9.28;66.55
39401;SHT31;75540;50.000;7.360;2024-03-06T15:48:53;9.20;67.19
39401;SHT31;75540;50.000;7.360;2024-03-06T15:51:21;9.20;66.84
39401;SHT31;75540;50.000;7.360;2024-03-06T15:53:49;9.15;67.04
39401;SHT31;75540;50.000;7.360;2024-03-06T15:56:19;9.08;66.92
39401;SHT31;75540;50.000;7.360;2024-03-06T15:58:50;9.19;66.49